Time;durP1;ratioP1;P1;durP2;ratioP2;P2;SDS_P1;SDS_P2;PMS_P1;PMS_P2;Temp;Humidity;BMP_temperature;BMP_pressure;BME280_temperature;BME280_humidity;BME280_pressure;Samples;Min_cycle;Max_cycle;Signal;HPM_P1;HPM_P2
2020/12/18 00:01:24;;;;;;;6.50;2.20;;;10.30;95.60;;;;;;4993969;28;20470;-69
2020/12/18 00:03:52;;;;;;;5.80;2.15;;;10.30;95.60;;;;;;4995052;28;20433;-69
2020/12/18 00:06:18;;;;;;;13.98;2.60;;;10.30;95.50;;;;;;4996612;28;20057;-68
2020/12/18 00:08:44;;;;;;;5.30;2.25;;;10.30;95.60;;;;;;4990973;28;20063;-69
2020/12/18 00:11:09;;;;;;;4.15;1.95;;;10.30;95.50;;;;;;4989494;28;20431;-67
2020/12/18 00:13:35;;;;;;;9.60;2.38;;;10.30;95.50;;;;;;4994944;28;20038;-69
2020/12/18 00:16:01;;;;;;;5.45;2.33;;;10.30;95.60;;;;;;4993871;28;20409;-68
2020/12/18 00:18:26;;;;;;;5.57;2.25;;;10.30;95.50;;;;;;4993888;28;20022;-68
2020/12/18 00:20:53;;;;;;;5.72;1.83;;;10.30;95.60;;;;;;4996359;28;20338;-68
2020/12/18 00:23:18;;;;;;;6.55;2.15;;;10.30;95.60;;;;;;4994731;28;20473;-67
2020/12/18 00:25:47;;;;;;;5.63;2.38;;;10.30;95.60;;;;;;4994672;28;20034;-68
2020/12/18 00:28:14;;;;;;;6.00;1.75;;;10.20;95.60;;;;;;4994771;28;20193;-68
2020/12/18 00:30:40;;;;;;;5.88;1.95;;;10.20;95.60;;;;;;4994724;28;20054;-68
2020/12/18 00:33:06;;;;;;;4.10;1.75;;;10.20;95.60;;;;;;4996218;28;20025;-68
2020/12/18 00:35:31;;;;;;;4.35;2.00;;;10.20;95.50;;;;;;4994845;28;20126;-68
2020/12/18 00:37:57;;;;;;;5.13;1.95;;;10.20;95.60;;;;;;4994511;28;20125;-67
2020/12/18 00:40:22;;;;;;;7.35;2.22;;;10.20;95.60;;;;;;4994793;28;20486;-68
2020/12/18 00:42:48;;;;;;;7.10;1.98;;;10.20;95.60;;;;;;4994543;28;20089;-69
2020/12/18 00:45:14;;;;;;;3.58;2.10;;;10.20;95.60;;;;;;4995776;28;20085;-68
2020/12/18 00:47:39;;;;;;;6.10;2.45;;;10.10;95.60;;;;;;4994548;28;20041;-68
2020/12/18 00:50:05;;;;;;;7.72;2.67;;;10.10;95.70;;;;;;4994322;28;20460;-68
2020/12/18 00:52:31;;;;;;;5.45;1.88;;;10.00;95.60;;;;;;4993823;28;20371;-68
2020/12/18 00:54:56;;;;;;;9.05;2.70;;;10.00;95.60;;;;;;4994115;28;20046;-68
2020/12/18 00:57:22;;;;;;;5.10;2.15;;;9.90;96.20;;;;;;4995694;28;20046;-68
2020/12/18 00:59:48;;;;;;;6.35;2.25;;;9.90;96.20;;;;;;4994443;28;20056;-68
2020/12/18 01:02:13;;;;;;;7.10;2.58;;;10.00;95.70;;;;;;4994207;28;20041;-68
2020/12/18 01:04:39;;;;;;;3.72;2.25;;;9.90;96.20;;;;;;4994036;28;20077;-68
2020/12/18 01:07:05;;;;;;;10.20;2.63;;;9.90;96.20;;;;;;4994224;28;20130;-68
2020/12/18 01:09:31;;;;;;;8.05;2.20;;;9.90;96.20;;;;;;4992856;28;20062;-67
2020/12/18 01:11:57;;;;;;;8.85;2.40;;;9.90;96.20;;;;;;4995623;28;20023;-68
2020/12/18 01:14:22;;;;;;;9.48;2.17;;;9.90;96.20;;;;;;4994019;28;20107;-69
2020/12/18 01:16:53;;;;;;;5.93;2.00;;;9.90;96.20;;;;;;4993285;28;20086;-69
2020/12/18 01:19:19;;;;;;;4.75;2.40;;;9.90;96.20;;;;;;4993906;28;20033;-68
2020/12/18 01:21:49;;;;;;;4.72;2.17;;;9.90;96.40;;;;;;4993463;28;20042;-70
2020/12/18 01:24:19;;;;;;;5.30;2.28;;;9.90;96.20;;;;;;4995089;28;20522;-69
2020/12/18 01:26:45;;;;;;;6.93;2.33;;;9.90;96.10;;;;;;4993610;28;20051;-68
2020/12/18 01:29:11;;;;;;;6.28;2.15;;;10.00;95.60;;;;;;4993370;28;20154;-68
2020/12/18 01:31:36;;;;;;;5.22;1.90;;;10.00;95.60;;;;;;4993429;28;20079;-69
2020/12/18 01:34:02;;;;;;;5.15;2.40;;;10.10;95.60;;;;;;4993610;28;20070;-68
2020/12/18 01:36:33;;;;;;;4.05;2.35;;;10.00;95.50;;;;;;4993545;28;20026;-68
2020/12/18 01:38:59;;;;;;;6.70;2.30;;;10.00;95.50;;;;;;4994990;28;20077;-69
2020/12/18 01:41:25;;;;;;;5.50;2.30;;;10.00;95.60;;;;;;4993396;28;20030;-68
2020/12/18 01:43:51;;;;;;;7.53;2.65;;;10.00;95.50;;;;;;4993152;28;20034;-68
2020/12/18 01:46:19;;;;;;;5.50;2.28;;;10.00;95.60;;;;;;4993188;28;20026;-68
2020/12/18 01:48:46;;;;;;;5.53;2.75;;;9.90;96.00;;;;;;4993304;28;20050;-68
2020/12/18 01:51:12;;;;;;;5.65;2.47;;;10.00;95.60;;;;;;4993643;28;20054;-69
2020/12/18 01:53:44;;;;;;;5.75;2.40;;;10.00;95.50;;;;;;4992967;28;20030;-68
2020/12/18 01:56:11;;;;;;;4.70;2.40;;;10.00;95.50;;;;;;4993044;28;20133;-69
2020/12/18 01:58:38;;;;;;;9.07;2.33;;;10.00;95.40;;;;;;4992854;28;20034;-68
2020/12/18 02:01:06;;;;;;;6.72;2.80;;;10.00;95.40;;;;;;4992796;28;20037;-68
2020/12/18 02:03:32;;;;;;;4.18;2.35;;;10.00;95.40;;;;;;4993025;28;20030;-68
2020/12/18 02:06:01;;;;;;;6.35;2.67;;;10.10;95.50;;;;;;4994429;28;20018;-69
2020/12/18 02:08:29;;;;;;;7.90;3.05;;;10.10;95.50;;;;;;4992794;28;20038;-68
2020/12/18 02:10:56;;;;;;;5.63;2.50;;;10.10;95.50;;;;;;4992793;28;20066;-69
2020/12/18 02:13:22;;;;;;;10.57;2.58;;;10.00;95.50;;;;;;4992704;28;20137;-68
2020/12/18 02:15:55;;;;;;;5.82;2.58;;;10.00;95.50;;;;;;4992634;28;20037;-68
2020/12/18 02:18:22;;;;;;;8.70;2.88;;;10.00;95.50;;;;;;4994174;28;20034;-68
2020/12/18 02:20:50;;;;;;;7.47;2.13;;;10.00;95.50;;;;;;4992883;28;20129;-68
2020/12/18 02:23:15;;;;;;;4.97;2.35;;;10.00;95.80;;;;;;4991418;28;20071;-70
2020/12/18 02:25:42;;;;;;;4.07;2.08;;;10.00;95.50;;;;;;4992632;28;20034;-68
2020/12/18 02:28:10;;;;;;;4.95;2.30;;;9.90;96.00;;;;;;4992634;28;20499;-68
2020/12/18 02:30:36;;;;;;;3.20;2.10;;;10.00;95.50;;;;;;4992517;28;20408;-68
2020/12/18 02:33:08;;;;;;;7.05;2.72;;;9.90;96.10;;;;;;4994319;28;20042;-69
2020/12/18 02:35:34;;;;;;;7.47;2.30;;;9.80;96.20;;;;;;4992611;28;20081;-69
2020/12/18 02:38:01;;;;;;;6.65;2.33;;;9.80;96.20;;;;;;4992626;28;20041;-68
2020/12/18 02:40:27;;;;;;;9.13;2.50;;;9.70;96.30;;;;;;4992217;28;20030;-69
2020/12/18 02:42:53;;;;;;;7.07;2.28;;;9.60;96.40;;;;;;4992475;28;20033;-68
2020/12/18 02:45:19;;;;;;;7.20;2.70;;;9.70;96.40;;;;;;4993894;28;20105;-68
2020/12/18 02:47:44;;;;;;;4.22;1.98;;;9.60;96.40;;;;;;4991502;28;20057;-67
2020/12/18 02:50:10;;;;;;;7.78;2.20;;;9.60;96.50;;;;;;4992202;28;20360;-67
2020/12/18 02:52:37;;;;;;;11.27;2.58;;;9.60;96.50;;;;;;4992394;28;20448;-67
2020/12/18 02:55:03;;;;;;;10.60;3.05;;;9.50;96.60;;;;;;4992158;28;20050;-68
2020/12/18 02:57:29;;;;;;;4.53;2.63;;;9.50;96.70;;;;;;4991515;28;20033;-68
2020/12/18 02:59:54;;;;;;;8.57;2.78;;;9.40;96.90;;;;;;4993655;28;20354;-68
2020/12/18 03:02:20;;;;;;;5.45;2.42;;;9.40;96.80;;;;;;4992371;28;20034;-68
2020/12/18 03:04:46;;;;;;;5.50;2.30;;;9.40;96.80;;;;;;4992076;28;20035;-68
2020/12/18 03:07:11;;;;;;;7.80;2.47;;;9.40;96.80;;;;;;4992326;28;20034;-69
2020/12/18 03:09:37;;;;;;;7.25;2.75;;;9.30;96.80;;;;;;4992220;28;20030;-68
2020/12/18 03:12:03;;;;;;;7.72;2.35;;;9.30;96.90;;;;;;4993681;28;20105;-69
2020/12/18 03:14:28;;;;;;;5.50;2.17;;;9.30;96.90;;;;;;4992228;28;20038;-68
2020/12/18 03:16:54;;;;;;;7.13;2.50;;;9.30;97.00;;;;;;4992243;28;20050;-67
2020/12/18 03:19:19;;;;;;;10.27;2.85;;;9.30;96.90;;;;;;4992105;28;20041;-68
2020/12/18 03:21:45;;;;;;;8.75;2.83;;;9.40;97.00;;;;;;4992034;28;20459;-67
2020/12/18 03:24:11;;;;;;;4.28;2.17;;;9.40;97.00;;;;;;4993480;28;20026;-68
2020/12/18 03:26:37;;;;;;;4.40;2.65;;;9.30;97.00;;;;;;4992140;28;20465;-67
2020/12/18 03:29:03;;;;;;;6.10;2.50;;;9.30;97.10;;;;;;4992117;28;20042;-68
2020/12/18 03:31:28;;;;;;;7.35;2.67;;;9.30;97.10;;;;;;4992027;28;20117;-68
2020/12/18 03:33:54;;;;;;;6.55;2.55;;;9.30;97.10;;;;;;4992064;28;20516;-68
2020/12/18 03:36:20;;;;;;;11.73;2.88;;;9.20;97.10;;;;;;4992704;28;20030;-69
2020/12/18 03:38:45;;;;;;;7.53;2.95;;;9.30;97.20;;;;;;4991675;28;20057;-68
2020/12/18 03:41:11;;;;;;;9.32;2.53;;;9.20;97.10;;;;;;4992204;28;20031;-68
2020/12/18 03:43:36;;;;;;;7.15;2.47;;;9.10;97.10;;;;;;4992113;28;20138;-67
2020/12/18 03:46:02;;;;;;;9.65;2.22;;;9.10;97.20;;;;;;4991223;28;20105;-68
2020/12/18 03:48:28;;;;;;;5.95;2.35;;;9.10;97.30;;;;;;4991839;28;20026;-68
2020/12/18 03:50:53;;;;;;;4.35;2.38;;;9.10;97.30;;;;;;4993153;28;20030;-68
2020/12/18 03:53:19;;;;;;;5.22;2.85;;;9.00;97.30;;;;;;4993317;28;20066;-69
2020/12/18 03:55:45;;;;;;;6.72;2.67;;;9.00;97.40;;;;;;4995126;28;20066;-68
2020/12/18 03:58:11;;;;;;;5.07;2.65;;;9.00;97.70;;;;;;4995413;28;20372;-68
2020/12/18 04:00:37;;;;;;;8.02;2.60;;;9.00;97.40;;;;;;4995460;28;20034;-67
2020/12/18 04:03:03;;;;;;;3.72;2.58;;;8.90;97.40;;;;;;4995509;28;20038;-66
2020/12/18 04:05:29;;;;;;;5.13;2.45;;;8.90;97.30;;;;;;4994374;28;20038;-68
2020/12/18 04:07:55;;;;;;;7.20;2.95;;;8.90;97.30;;;;;;4981922;28;20039;-69
2020/12/18 04:10:21;;;;;;;5.82;2.45;;;8.90;97.40;;;;;;4982985;28;20026;-69
2020/12/18 04:12:46;;;;;;;4.72;2.75;;;8.80;97.40;;;;;;4994903;28;20096;-67
2020/12/18 04:15:12;;;;;;;6.88;2.92;;;8.70;97.30;;;;;;4995486;28;20034;-68
2020/12/18 04:17:38;;;;;;;11.77;2.72;;;8.60;97.40;;;;;;4994928;28;20038;-68
2020/12/18 04:20:03;;;;;;;5.32;2.50;;;8.60;97.50;;;;;;4995044;28;20350;-68
2020/12/18 04:22:29;;;;;;;7.30;3.10;;;8.50;97.60;;;;;;4994912;28;20030;-69
2020/12/18 04:24:55;;;;;;;4.63;2.50;;;8.50;97.70;;;;;;4994828;28;20491;-67
2020/12/18 04:27:21;;;;;;;6.97;2.55;;;8.50;97.60;;;;;;4996172;28;20030;-67
2020/12/18 04:29:47;;;;;;;8.55;2.78;;;8.30;97.40;;;;;;4994749;28;20493;-68
2020/12/18 04:32:12;;;;;;;7.35;3.20;;;8.20;97.70;;;;;;4994513;28;20475;-68
2020/12/18 04:34:38;;;;;;;10.20;3.45;;;8.20;97.90;;;;;;4994439;28;20124;-67
2020/12/18 04:37:04;;;;;;;7.68;3.20;;;8.30;98.00;;;;;;4993865;28;20057;-69
2020/12/18 04:39:30;;;;;;;7.90;3.45;;;8.30;97.90;;;;;;4994662;28;20034;-68
2020/12/18 04:41:55;;;;;;;9.73;3.58;;;8.20;97.90;;;;;;4996075;28;20467;-68
2020/12/18 04:44:22;;;;;;;7.30;3.55;;;8.20;98.00;;;;;;4994401;28;20065;-68
2020/12/18 04:46:50;;;;;;;7.38;3.22;;;8.20;98.20;;;;;;4994328;28;20039;-68
2020/12/18 04:49:17;;;;;;;;;;;8.20;98.20;;;;;;4994750;28;20080;-69
2020/12/18 04:51:43;;;;;;;7.32;3.13;;;8.20;98.20;;;;;;4994228;28;20033;-67
2020/12/18 04:54:11;;;;;;;9.70;3.10;;;8.20;98.10;;;;;;4995623;28;20073;-69
2020/12/18 04:56:38;;;;;;;7.85;3.15;;;8.20;98.20;;;;;;4994421;28;20042;-69
2020/12/18 04:59:05;;;;;;;9.43;3.65;;;8.20;98.30;;;;;;4994090;28;20456;-69
2020/12/18 05:01:31;;;;;;;6.38;3.20;;;8.30;98.30;;;;;;4994194;28;20030;-69
2020/12/18 05:03:57;;;;;;;9.90;3.45;;;8.30;98.30;;;;;;4993537;28;20707;-68
2020/12/18 05:06:23;;;;;;;10.80;3.22;;;8.30;98.20;;;;;;4995393;28;20484;-68
2020/12/18 05:08:48;;;;;;;5.15;3.10;;;8.30;98.30;;;;;;4993918;28;20039;-69
2020/12/18 05:11:25;;;;;;;6.03;3.38;;;8.30;98.50;;;;;;4993927;28;20090;-67
2020/12/18 05:13:53;;;;;;;6.68;3.63;;;8.30;98.40;;;;;;4993921;28;20515;-67
2020/12/18 05:16:20;;;;;;;6.78;3.08;;;8.30;98.40;;;;;;4994008;28;20061;-68
2020/12/18 05:18:47;;;;;;;7.23;3.67;;;8.30;98.50;;;;;;4993712;28;20022;-68
2020/12/18 05:21:12;;;;;;;5.10;2.97;;;8.30;98.60;;;;;;4995350;28;20480;-68
2020/12/18 05:23:40;;;;;;;5.20;2.90;;;8.40;98.50;;;;;;4993695;28;20129;-69
2020/12/18 05:26:10;;;;;;;9.83;3.13;;;8.40;98.50;;;;;;4993939;28;20345;-68
2020/12/18 05:28:41;;;;;;;5.93;2.97;;;8.60;98.50;;;;;;4992738;28;20264;-68
2020/12/18 05:31:17;;;;;;;9.48;3.17;;;8.50;98.50;;;;;;4993619;28;20045;-69
2020/12/18 05:33:46;;;;;;;8.15;3.22;;;8.60;98.40;;;;;;4993335;28;20031;-68
2020/12/18 05:36:12;;;;;;;8.07;2.92;;;8.60;98.50;;;;;;4995003;28;20033;-68
2020/12/18 05:38:39;;;;;;;11.75;4.15;;;8.60;98.50;;;;;;4993439;28;20038;-68
2020/12/18 05:41:06;;;;;;;9.88;3.10;;;8.70;98.50;;;;;;4993422;28;20031;-68
2020/12/18 05:43:42;;;;;;;7.35;3.03;;;8.70;98.50;;;;;;4993593;28;20085;-68
2020/12/18 05:46:20;;;;;;;8.10;3.10;;;8.70;98.40;;;;;;4993273;28;20034;-68
2020/12/18 05:48:57;;;;;;;8.35;2.95;;;8.80;98.40;;;;;;4993248;28;20037;-67
2020/12/18 05:51:34;;;;;;;10.02;3.45;;;8.70;98.30;;;;;;4994460;28;20035;-68
2020/12/18 05:54:05;;;;;;;9.23;3.50;;;8.70;98.30;;;;;;4993409;28;20047;-67
2020/12/18 05:56:33;;;;;;;7.20;3.40;;;8.70;98.40;;;;;;4992974;28;20035;-68
2020/12/18 05:59:05;;;;;;;7.43;3.23;;;8.70;98.30;;;;;;4993298;28;20371;-69
2020/12/18 06:01:32;;;;;;;9.50;3.22;;;8.70;98.30;;;;;;4993311;28;20034;-68
2020/12/18 06:04:03;;;;;;;8.57;3.08;;;8.60;98.40;;;;;;4993154;28;20416;-69
2020/12/18 06:06:34;;;;;;;7.13;3.10;;;8.60;98.50;;;;;;4992914;28;20030;-68
2020/12/18 06:09:01;;;;;;;8.05;3.00;;;8.60;98.70;;;;;;4993458;28;20019;-68
2020/12/18 06:11:30;;;;;;;5.45;3.17;;;8.50;98.50;;;;;;4992633;28;20073;-67
2020/12/18 06:13:58;;;;;;;7.53;3.28;;;8.50;98.50;;;;;;4992986;28;20128;-67
2020/12/18 06:16:28;;;;;;;7.68;3.20;;;8.50;98.50;;;;;;4992067;28;20393;-68
2020/12/18 06:19:05;;;;;;;8.45;3.38;;;8.40;98.50;;;;;;4992693;28;20022;-68
2020/12/18 06:21:31;;;;;;;8.00;3.20;;;8.40;98.70;;;;;;4992727;28;20065;-69
2020/12/18 06:23:57;;;;;;;7.32;3.35;;;8.30;98.70;;;;;;4994133;28;20527;-69
2020/12/18 06:26:24;;;;;;;12.70;3.88;;;8.30;98.70;;;;;;4992531;28;20177;-68
2020/12/18 06:28:50;;;;;;;10.13;4.03;;;8.30;98.80;;;;;;4992602;28;20072;-68
2020/12/18 06:31:27;;;;;;;9.00;3.80;;;8.30;98.80;;;;;;4992605;28;20039;-68
2020/12/18 06:33:54;;;;;;;8.70;3.85;;;8.30;98.80;;;;;;4992541;28;20038;-69
2020/12/18 06:36:41;;;;;;;11.45;3.78;;;8.30;98.80;;;;;;4993995;28;20026;-69
2020/12/18 06:39:23;;;;;;;11.02;3.58;;;8.20;98.80;;;;;;4993020;28;20050;-68
2020/12/18 06:42:15;;;;;;;11.35;4.20;;;8.20;98.90;;;;;;4992312;28;20482;-68
2020/12/18 06:44:47;;;;;;;12.05;3.97;;;8.20;98.90;;;;;;4984145;28;20030;-69
2020/12/18 06:47:17;;;;;;;8.00;3.95;;;8.20;98.90;;;;;;4992265;28;20539;-68
2020/12/18 06:50:06;;;;;;;8.27;3.92;;;8.20;98.90;;;;;;4992298;28;20046;-70
2020/12/18 06:52:49;;;;;;;8.18;3.90;;;8.10;98.80;;;;;;4992331;28;20396;-70
2020/12/18 06:55:29;;;;;;;9.88;3.80;;;8.20;98.90;;;;;;4991044;28;20129;-69
2020/12/18 06:58:09;;;;;;;8.65;3.63;;;8.10;98.90;;;;;;4992205;28;20030;-69
2020/12/18 07:00:46;;;;;;;12.32;4.05;;;8.10;98.90;;;;;;4992359;28;20162;-69
2020/12/18 07:03:31;;;;;;;11.95;3.78;;;8.10;98.90;;;;;;4993320;28;20145;-69
2020/12/18 07:06:04;;;;;;;9.45;4.20;;;8.10;99.00;;;;;;4992506;28;20043;-69
2020/12/18 07:08:35;;;;;;;10.77;4.32;;;8.00;99.00;;;;;;4992009;28;20457;-71
2020/12/18 07:11:03;;;;;;;8.73;3.75;;;8.10;99.00;;;;;;4992329;28;20038;-69
2020/12/18 07:13:30;;;;;;;6.75;3.75;;;8.00;99.10;;;;;;4991883;28;20031;-68
2020/12/18 07:16:04;;;;;;;12.20;4.28;;;8.10;99.00;;;;;;4991813;28;20472;-69
2020/12/18 07:18:37;;;;;;;7.28;3.95;;;8.10;99.00;;;;;;4991894;28;20034;-68
2020/12/18 07:21:10;;;;;;;10.43;4.32;;;8.20;99.00;;;;;;4993639;28;20035;-68
2020/12/18 07:23:38;;;;;;;9.60;4.47;;;8.10;98.90;;;;;;4992240;28;20055;-69
2020/12/18 07:26:06;;;;;;;12.73;4.30;;;8.10;99.00;;;;;;4992292;28;20081;-70
2020/12/18 07:28:37;;;;;;;14.60;5.00;;;8.10;99.20;;;;;;4995698;28;20034;-69
2020/12/18 07:31:13;;;;;;;8.15;3.72;;;8.10;99.30;;;;;;4995780;28;20050;-68
2020/12/18 07:33:39;;;;;;;11.38;4.70;;;8.10;99.10;;;;;;4995681;28;20026;-69
2020/12/18 07:36:05;;;;;;;16.38;7.43;;;8.10;99.20;;;;;;4997100;28;20150;-69
2020/12/18 07:38:33;;;;;;;13.85;5.65;;;8.10;99.10;;;;;;4995804;28;20034;-69
2020/12/18 07:41:04;;;;;;;18.15;6.75;;;8.20;99.10;;;;;;4995376;28;20089;-69
2020/12/18 07:43:32;;;;;;;10.43;5.00;;;8.20;98.90;;;;;;4994431;28;20478;-69
2020/12/18 07:46:01;;;;;;;11.75;5.53;;;8.20;99.00;;;;;;4995394;28;20479;-69
2020/12/18 07:48:32;;;;;;;10.90;6.20;;;8.10;99.20;;;;;;4995320;28;20059;-68
2020/12/18 07:51:10;;;;;;;16.45;4.50;;;8.10;98.90;;;;;;4997185;28;20034;-68
2020/12/18 07:53:38;;;;;;;8.43;4.05;;;8.10;98.90;;;;;;4995163;28;20041;-70
2020/12/18 07:56:06;;;;;;;9.40;4.07;;;8.10;98.90;;;;;;4995497;28;20035;-69
2020/12/18 07:58:34;;;;;;;15.32;4.35;;;8.10;99.00;;;;;;4995387;28;20480;-69
2020/12/18 08:01:15;;;;;;;15.05;4.20;;;8.10;98.90;;;;;;4995004;28;20097;-69
2020/12/18 08:03:46;;;;;;;9.48;4.65;;;8.20;98.90;;;;;;4995027;28;20401;-67
2020/12/18 08:06:33;;;;;;;9.45;4.55;;;8.20;98.90;;;;;;4996374;28;20042;-69
2020/12/18 08:09:01;;;;;;;7.47;3.85;;;8.20;98.90;;;;;;4993507;28;20054;-68
2020/12/18 08:11:29;;;;;;;11.73;5.22;;;8.30;98.90;;;;;;4994659;28;20031;-69
2020/12/18 08:13:56;;;;;;;10.65;6.10;;;8.20;98.90;;;;;;4994964;28;20034;-71
2020/12/18 08:16:24;;;;;;;13.45;4.97;;;8.30;98.90;;;;;;4994681;28;20038;-69
2020/12/18 08:18:58;;;;;;;10.65;4.32;;;8.30;98.90;;;;;;4994470;28;20356;-69
2020/12/18 08:21:34;;;;;;;8.38;4.07;;;8.40;98.80;;;;;;4996281;28;20058;-71
2020/12/18 08:24:23;;;;;;;16.25;5.47;;;8.30;98.70;;;;;;4993820;28;20026;-70
2020/12/18 08:27:11;;;;;;;7.75;4.22;;;8.30;98.80;;;;;;4994760;28;20039;-69
2020/12/18 08:29:39;;;;;;;9.95;4.10;;;8.20;98.80;;;;;;4993780;28;20465;-69
2020/12/18 08:32:07;;;;;;;11.50;4.67;;;8.20;98.90;;;;;;4994212;28;20038;-69
2020/12/18 08:34:34;;;;;;;8.05;4.38;;;8.30;98.90;;;;;;4993648;28;20045;-68
2020/12/18 08:37:01;;;;;;;9.20;4.93;;;8.30;98.80;;;;;;4994689;28;20072;-70
2020/12/18 08:39:34;;;;;;;11.27;4.63;;;8.40;98.80;;;;;;4992466;28;20519;-69
2020/12/18 08:42:02;;;;;;;9.77;4.75;;;8.40;98.80;;;;;;4995704;28;20026;-69
2020/12/18 08:44:36;;;;;;;9.13;5.35;;;8.40;98.80;;;;;;4994023;28;20081;-70
2020/12/18 08:47:22;;;;;;;10.20;4.55;;;8.40;98.70;;;;;;4994459;28;20795;-68
2020/12/18 08:49:50;;;;;;;10.43;5.03;;;8.40;98.70;;;;;;4994196;28;20065;-69
2020/12/18 08:52:24;;;;;;;12.98;4.53;;;8.40;98.70;;;;;;4994110;28;20038;-71
2020/12/18 08:55:01;;;;;;;10.40;5.03;;;8.60;98.70;;;;;;4994289;28;20050;-73
2020/12/18 08:57:30;;;;;;;10.90;4.63;;;8.60;98.60;;;;;;4994087;28;20027;-69
2020/12/18 09:00:18;;;;;;;12.25;5.03;;;8.60;98.60;;;;;;4995966;28;20026;-71
2020/12/18 09:02:58;;;;;;;9.98;4.40;;;8.50;98.60;;;;;;4994020;28;20026;-71
2020/12/18 09:05:25;;;;;;;13.27;5.25;;;8.60;98.60;;;;;;4994049;28;20070;-69
2020/12/18 09:07:51;;;;;;;11.20;4.65;;;8.50;98.70;;;;;;4993863;28;20030;-70
2020/12/18 09:10:35;;;;;;;15.48;4.93;;;8.60;98.70;;;;;;4993990;28;20061;-70
2020/12/18 09:13:16;;;;;;;14.18;5.35;;;8.60;98.70;;;;;;4992856;28;20026;-69
2020/12/18 09:16:03;;;;;;;12.02;5.45;;;8.60;98.80;;;;;;4993487;28;20106;-68
2020/12/18 09:18:31;;;;;;;15.65;5.65;;;8.60;98.80;;;;;;4992894;28;20039;-73
2020/12/18 09:21:14;;;;;;;12.60;5.00;;;8.80;99.20;;;;;;4995092;28;20047;-70
2020/12/18 09:23:41;;;;;;;9.57;4.95;;;8.90;98.70;;;;;;4993546;28;20117;-70
2020/12/18 09:26:07;;;;;;;17.38;8.60;;;8.90;98.60;;;;;;4993672;28;20056;-71
2020/12/18 09:28:41;;;;;;;13.05;6.80;;;8.80;98.50;;;;;;4993600;28;20129;-69
2020/12/18 09:31:08;;;;;;;8.38;4.38;;;8.80;98.50;;;;;;4992952;28;20034;-64
2020/12/18 09:33:38;;;;;;;12.93;4.45;;;8.70;98.60;;;;;;4993322;28;20026;-68
2020/12/18 09:36:10;;;;;;;15.80;5.07;;;8.80;98.70;;;;;;4993748;28;20110;-69
2020/12/18 09:38:45;;;;;;;9.27;4.45;;;8.80;98.70;;;;;;4991871;28;20128;-69
2020/12/18 09:41:16;;;;;;;11.13;4.85;;;8.90;98.60;;;;;;4993309;28;20058;-68
2020/12/18 09:43:42;;;;;;;11.20;5.03;;;9.00;98.60;;;;;;4993185;28;20416;-69
2020/12/18 09:46:11;;;;;;;9.45;4.72;;;9.00;98.60;;;;;;4993106;28;20030;-72
2020/12/18 09:48:41;;;;;;;14.07;4.82;;;9.10;98.50;;;;;;4992647;28;20042;-71
2020/12/18 09:51:07;;;;;;;8.45;4.82;;;9.10;98.40;;;;;;4994183;28;20041;-71
2020/12/18 09:53:33;;;;;;;16.77;5.47;;;9.10;98.40;;;;;;4992742;28;20107;-72
2020/12/18 09:55:58;;;;;;;11.30;5.28;;;9.20;98.40;;;;;;4993105;28;20452;-69
2020/12/18 09:58:25;;;;;;;12.32;5.07;;;9.10;98.30;;;;;;4992923;28;20472;-70
2020/12/18 10:00:50;;;;;;;10.13;5.25;;;9.10;98.30;;;;;;4993008;28;20117;-70
2020/12/18 10:03:16;;;;;;;12.90;5.13;;;9.30;98.40;;;;;;4993305;28;20489;-72
2020/12/18 10:05:45;;;;;;;11.85;5.63;;;9.20;98.20;;;;;;4992831;28;20156;-70
2020/12/18 10:08:10;;;;;;;11.07;4.97;;;9.30;98.20;;;;;;4992725;28;20431;-73
2020/12/18 10:10:36;;;;;;;9.23;4.57;;;9.30;98.10;;;;;;4992783;28;20133;-72
2020/12/18 10:13:02;;;;;;;11.15;5.30;;;9.40;98.10;;;;;;4992483;28;20057;-74
2020/12/18 10:15:28;;;;;;;17.25;5.38;;;9.40;98.00;;;;;;4992611;28;20116;-74
2020/12/18 10:17:54;;;;;;;8.27;4.93;;;9.50;98.00;;;;;;4994082;28;20400;-75
2020/12/18 10:20:20;;;;;;;18.17;6.07;;;9.60;97.90;;;;;;4992654;28;20496;-70
2020/12/18 10:22:45;;;;;;;9.80;4.80;;;9.60;97.90;;;;;;4992237;28;20062;-71
2020/12/18 10:25:11;;;;;;;8.18;5.03;;;9.60;97.80;;;;;;4992105;28;20057;-74
2020/12/18 10:27:37;;;;;;;10.68;5.32;;;9.70;97.80;;;;;;4992600;28;20076;-72
2020/12/18 10:30:07;;;;;;;15.10;5.45;;;9.70;97.70;;;;;;4994297;28;20022;-69
2020/12/18 10:32:33;;;;;;;12.65;5.32;;;9.80;97.70;;;;;;4992357;28;20228;-74
2020/12/18 10:35:00;;;;;;;10.35;4.43;;;9.80;97.60;;;;;;4992270;28;20041;-72
2020/12/18 10:37:28;;;;;;;11.40;4.65;;;9.80;97.50;;;;;;4992182;28;20030;-70
2020/12/18 10:39:54;;;;;;;11.88;5.00;;;9.90;97.50;;;;;;4992065;28;20088;-72
2020/12/18 10:42:20;;;;;;;9.25;4.63;;;9.90;97.40;;;;;;4993834;28;20408;-72
2020/12/18 10:44:47;;;;;;;8.88;4.90;;;9.80;97.40;;;;;;4992486;28;20050;-69
2020/12/18 10:47:12;;;;;;;7.43;4.47;;;9.90;97.50;;;;;;4991391;28;20073;-70
2020/12/18 10:49:38;;;;;;;9.25;4.70;;;9.90;97.30;;;;;;4991931;28;20073;-70
2020/12/18 10:52:05;;;;;;;14.45;5.10;;;10.00;96.80;;;;;;4990906;28;20062;-72
2020/12/18 10:54:31;;;;;;;9.25;4.72;;;10.10;96.80;;;;;;4990782;28;20038;-75
2020/12/18 10:56:57;;;;;;;7.07;4.18;;;10.20;96.70;;;;;;4992723;28;20041;-70
2020/12/18 10:59:24;;;;;;;16.08;4.30;;;10.20;96.50;;;;;;4992340;28;20389;-71
2020/12/18 11:01:54;;;;;;;9.05;4.55;;;10.20;96.50;;;;;;4992802;28;20034;-68
2020/12/18 11:04:20;;;;;;;8.07;4.28;;;10.30;96.60;;;;;;4995992;28;20022;-73
2020/12/18 11:06:46;;;;;;;8.13;3.92;;;10.40;96.40;;;;;;4995245;28;20085;-68
2020/12/18 11:09:13;;;;;;;6.50;3.28;;;10.30;96.30;;;;;;4997462;28;20084;-69
2020/12/18 11:11:39;;;;;;;8.75;3.45;;;10.30;96.30;;;;;;4995727;28;20030;-67
2020/12/18 11:14:05;;;;;;;8.82;3.78;;;10.30;96.30;;;;;;4995937;28;20085;-69
2020/12/18 11:16:32;;;;;;;9.52;3.63;;;10.30;96.20;;;;;;4995689;28;20433;-70
2020/12/18 11:19:01;;;;;;;7.03;3.90;;;10.40;96.20;;;;;;4994874;28;20130;-70
2020/12/18 11:21:28;;;;;;;13.55;3.63;;;10.50;96.30;;;;;;4993950;28;20455;-70
2020/12/18 11:23:54;;;;;;;6.45;3.50;;;10.60;96.30;;;;;;4997289;28;20026;-71
2020/12/18 11:26:20;;;;;;;8.40;3.55;;;10.70;96.20;;;;;;4995892;28;20465;-71
2020/12/18 11:28:46;;;;;;;6.68;3.35;;;10.80;95.90;;;;;;4995817;28;20053;-69
2020/12/18 11:31:12;;;;;;;6.40;3.65;;;11.00;95.90;;;;;;4996037;28;20045;-69
2020/12/18 11:33:37;;;;;;;10.40;3.72;;;11.10;95.80;;;;;;4995762;28;20027;-71
2020/12/18 11:36:03;;;;;;;9.27;3.92;;;11.30;95.30;;;;;;4997003;28;20483;-72
2020/12/18 11:38:29;;;;;;;6.85;3.22;;;11.60;95.30;;;;;;4995373;28;20030;-72
2020/12/18 11:40:54;;;;;;;11.13;3.78;;;12.00;95.10;;;;;;4995206;28;20129;-73
2020/12/18 11:43:20;;;;;;;5.53;3.13;;;12.20;94.50;;;;;;4994206;28;20030;-70
2020/12/18 11:45:46;;;;;;;15.45;3.15;;;12.20;94.10;;;;;;4995697;28;20341;-72
2020/12/18 11:48:11;;;;;;;11.73;3.20;;;12.40;94.30;;;;;;4996611;28;20185;-70
2020/12/18 11:50:37;;;;;;;11.20;3.38;;;12.70;94.10;;;;;;4995198;28;20536;-78
2020/12/18 11:53:04;;;;;;;5.72;3.00;;;12.70;93.60;;;;;;4995068;28;20030;-73
2020/12/18 11:55:31;;;;;;;10.87;3.37;;;13.00;93.80;;;;;;4993930;28;20051;-72
2020/12/18 11:57:57;;;;;;;9.80;2.65;;;13.00;93.20;;;;;;4994705;28;20026;-72
2020/12/18 12:00:22;;;;;;;8.05;2.83;;;12.90;93.30;;;;;;4996640;28;20046;-71
2020/12/18 12:02:49;;;;;;;6.95;2.92;;;12.80;93.00;;;;;;4993051;28;20480;-71
2020/12/18 12:05:16;;;;;;;12.23;4.47;;;12.70;93.10;;;;;;4995153;28;20459;-70
2020/12/18 12:07:43;;;;;;;5.07;2.70;;;12.80;93.10;;;;;;4994827;28;20149;-69
2020/12/18 12:10:09;;;;;;;8.00;3.47;;;12.70;93.10;;;;;;4993904;28;20487;-69
2020/12/18 12:12:35;;;;;;;6.40;2.65;;;12.90;93.10;;;;;;4993487;28;20084;-71
2020/12/18 12:15:01;;;;;;;6.00;2.40;;;12.80;92.80;;;;;;4995499;28;20341;-69
2020/12/18 12:17:28;;;;;;;6.68;2.08;;;12.70;92.80;;;;;;4994820;28;20033;-73
2020/12/18 12:19:54;;;;;;;12.13;3.00;;;12.60;92.90;;;;;;4994103;28;20026;-71
2020/12/18 12:22:23;;;;;;;7.03;2.67;;;12.60;93.00;;;;;;4994886;28;20026;-71
2020/12/18 12:24:52;;;;;;;10.85;3.55;;;12.60;93.10;;;;;;4994723;28;20034;-71
2020/12/18 12:27:26;;;;;;;6.22;2.28;;;12.60;93.10;;;;;;4996108;28;20364;-70
2020/12/18 12:29:52;;;;;;;5.20;2.22;;;12.70;93.20;;;;;;4994907;28;20035;-68
2020/12/18 12:32:18;;;;;;;5.90;2.42;;;12.70;93.30;;;;;;4994589;28;20034;-69
2020/12/18 12:34:45;;;;;;;6.30;2.40;;;12.70;93.30;;;;;;4994720;28;20093;-70
2020/12/18 12:37:11;;;;;;;11.43;2.17;;;12.70;93.20;;;;;;4994514;28;20113;-78
2020/12/18 12:39:38;;;;;;;10.57;2.53;;;12.60;93.30;;;;;;4993738;28;20037;-70
2020/12/18 12:42:04;;;;;;;13.27;3.17;;;12.60;93.20;;;;;;4995945;28;20037;-71
2020/12/18 12:44:30;;;;;;;6.30;2.50;;;12.60;93.20;;;;;;4994326;28;20134;-69
2020/12/18 12:46:56;;;;;;;10.90;3.10;;;12.50;93.20;;;;;;4993400;28;20039;-69
2020/12/18 12:49:23;;;;;;;17.40;5.93;;;12.50;93.30;;;;;;4994090;28;20192;-70
2020/12/18 12:51:49;;;;;;;8.85;3.22;;;12.50;93.20;;;;;;4994235;28;20031;-68
2020/12/18 12:54:14;;;;;;;6.40;2.33;;;12.50;93.10;;;;;;4995631;28;20108;-70
2020/12/18 12:56:41;;;;;;;9.80;2.20;;;12.50;93.30;;;;;;4994177;28;20381;-71